Time;durP1;ratioP1;P1;durP2;ratioP2;P2;SDS_P1;SDS_P2;PMS_P1;PMS_P2;Temp;Humidity;BMP_temperature;BMP_pressure;BME280_temperature;BME280_humidity;BME280_pressure;Samples;Min_cycle;Max_cycle;Signal;HPM_P1;HPM_P2
2022/05/26 00:01:36;;;;;;;34.78;31.10;;;;;;;20.94;61.74;95149.50;5000007;28;20231;-68
2022/05/26 00:04:03;;;;;;;37.03;31.92;;;;;;;20.76;62.27;95154.72;5000755;28;20215;-67
2022/05/26 00:06:29;;;;;;;36.55;31.45;;;;;;;20.72;62.52;95156.19;5008353;28;20318;-68
2022/05/26 00:08:55;;;;;;;33.80;30.30;;;;;;;20.57;62.92;95157.25;4997362;28;20265;-68
2022/05/26 00:11:28;;;;;;;35.30;31.60;;;;;;;20.32;64.08;95150.94;4993943;28;20216;-68
2022/05/26 00:13:55;;;;;;;35.03;31.50;;;;;;;20.51;63.35;95138.56;5001357;28;20264;-68
2022/05/26 00:16:21;;;;;;;36.05;32.25;;;;;;;20.66;62.80;95139.97;5013440;28;20234;-68
2022/05/26 00:18:47;;;;;;;37.83;33.72;;;;;;;20.78;62.16;95137.47;4969184;28;20223;-68
2022/05/26 00:21:16;;;;;;;38.58;33.97;;;;;;;20.75;62.44;95148.56;5000224;28;20219;-66
2022/05/26 00:23:42;;;;;;;39.92;35.25;;;;;;;20.60;63.14;95154.16;4998182;28;20223;-67
2022/05/26 00:26:07;;;;;;;36.00;32.20;;;;;;;20.55;63.18;95151.28;5003990;28;20254;-68
2022/05/26 00:28:34;;;;;;;37.35;32.83;;;;;;;20.55;63.29;95158.50;4997883;28;20221;-67
2022/05/26 00:30:59;;;;;;;37.15;32.35;;;;;;;20.45;63.38;95143.72;4996561;28;20289;-65
2022/05/26 00:33:26;;;;;;;34.67;31.08;;;;;;;20.02;64.84;95141.53;4995301;28;20258;-66
2022/05/26 00:35:51;;;;;;;37.38;32.65;;;;;;;20.18;64.93;95142.13;4993633;28;20237;-70
2022/05/26 00:38:17;;;;;;;35.38;31.55;;;;;;;20.29;64.43;95128.16;5001713;28;20246;-68
2022/05/26 00:40:44;;;;;;;36.97;32.15;;;;;;;20.32;64.40;95134.91;4999849;28;20266;-70
2022/05/26 00:43:11;;;;;;;38.83;32.47;;;;;;;20.38;64.00;95132.22;5020538;28;20242;-69
2022/05/26 00:46:07;;;;;;;36.42;32.53;;;;;;;20.32;64.15;95137.59;5001536;28;20222;-67
2022/05/26 00:48:54;;;;;;;37.70;33.70;;;;;;;20.24;64.50;95135.97;4998054;28;20223;-66
2022/05/26 00:51:27;;;;;;;38.40;34.13;;;;;;;20.14;64.98;95135.56;5008820;28;20231;-68
2022/05/26 00:53:58;;;;;;;37.15;33.28;;;;;;;20.38;63.86;95137.56;4997527;28;20223;-66
2022/05/26 00:56:54;;;;;;;39.00;34.75;;;;;;;20.31;64.18;95143.94;4997106;28;20203;-67
2022/05/26 00:59:47;;;;;;;38.08;32.72;;;;;;;20.35;63.98;95137.16;4997443;28;20258;-66
2022/05/26 01:02:15;;;;;;;35.58;31.75;;;;;;;20.26;64.22;95140.06;4966509;28;20208;-67
2022/05/26 01:04:53;;;;;;;37.15;32.53;;;;;;;20.15;64.56;95126.50;4960802;28;20259;-64
2022/05/26 01:07:25;;;;;;;37.03;33.10;;;;;;;20.20;64.45;95145.41;4968695;28;20346;-65
2022/05/26 01:09:52;;;;;;;39.15;33.78;;;;;;;20.14;64.58;95152.41;4961918;28;20227;-67
2022/05/26 01:12:17;;;;;;;34.95;31.25;;;;;;;19.75;65.72;95166.56;4962880;28;20228;-67
2022/05/26 01:14:48;;;;;;;36.22;32.35;;;;;;;19.87;65.36;95153.47;4975035;28;20264;-68
2022/05/26 01:17:38;;;;;;;35.03;30.83;;;;;;;19.98;64.67;95153.66;4959558;28;20255;-67
2022/05/26 01:20:12;;;;;;;34.28;30.70;;;;;;;20.01;64.48;95157.75;4978768;28;20231;-65
2022/05/26 01:23:13;;;;;;;34.72;31.00;;;;;;;20.06;63.94;95155.28;4956722;28;20231;-67
2022/05/26 01:26:03;;;;;;;37.10;33.10;;;;;;;19.98;64.23;95156.31;4959474;28;20223;-68
2022/05/26 01:29:16;;;;;;;36.90;33.00;;;;;;;20.11;64.05;95158.16;4955877;28;20294;-68
2022/05/26 01:32:07;;;;;;;37.88;33.80;;;;;;;20.01;64.55;95163.09;4876157;29;20250;-67
2022/05/26 01:34:54;;;;;;;38.15;34.08;;;;;;;19.94;64.69;95165.78;4880011;29;20802;-67
2022/05/26 01:37:42;;;;;;;37.28;33.20;;;;;;;19.72;65.54;95159.81;4880780;29;20234;-67
2022/05/26 01:40:22;;;;;;;35.65;31.85;;;;;;;19.93;64.49;95172.13;4896470;29;20252;-67
2022/05/26 01:43:12;;;;;;;37.13;33.35;;;;;;;19.96;64.22;95184.25;4900908;29;20241;-66
2022/05/26 01:45:44;;;;;;;37.92;32.80;;;;;;;19.88;64.52;95187.94;4896521;29;20320;-68
2022/05/26 01:48:26;;;;;;;38.38;34.28;;;;;;;19.86;64.41;95186.50;4917352;29;20229;-68
2022/05/26 01:51:20;;;;;;;36.35;32.47;;;;;;;19.82;64.33;95184.25;4903076;29;20316;-66
2022/05/26 01:53:52;;;;;;;36.75;32.58;;;;;;;19.90;64.07;95179.72;4905302;29;20299;-69
2022/05/26 01:56:26;;;;;;;36.28;32.47;;;;;;;19.71;64.74;95174.19;4904760;29;20624;-66
2022/05/26 01:59:08;;;;;;;37.53;33.47;;;;;;;19.85;64.66;95179.53;4901833;29;20487;-68
2022/05/26 02:01:40;;;;;;;39.45;32.67;;;;;;;19.73;64.89;95176.66;4912542;29;20261;-65
2022/05/26 02:04:13;;;;;;;37.20;33.22;;;;;;;19.75;64.90;95172.75;4914593;29;20548;-69
2022/05/26 02:06:45;;;;;;;37.95;33.33;;;;;;;19.75;64.90;95174.59;4896609;29;20237;-67
2022/05/26 02:09:20;;;;;;;39.08;34.55;;;;;;;19.78;64.94;95169.69;4988589;28;20215;-69
2022/05/26 02:12:09;;;;;;;36.85;32.85;;;;;;;19.72;65.03;95162.47;4981133;28;20252;-69
2022/05/26 02:14:47;;;;;;;37.10;33.08;;;;;;;19.73;64.85;95157.97;5002137;28;20290;-67
2022/05/26 02:17:22;;;;;;;38.17;33.95;;;;;;;19.73;64.85;95164.13;4999638;28;20210;-65
2022/05/26 02:20:01;;;;;;;37.30;32.80;;;;;;;19.78;64.75;95159.00;5001877;28;20249;-69
2022/05/26 02:22:34;;;;;;;38.78;33.88;;;;;;;19.59;65.34;95170.44;4993952;28;20241;-69
2022/05/26 02:25:10;;;;;;;39.40;33.65;;;;;;;19.69;64.93;95170.06;4995984;28;20253;-67
2022/05/26 02:27:37;;;;;;;39.03;34.90;;;;;;;19.75;64.51;95167.44;4996108;28;20246;-68
2022/05/26 02:30:05;;;;;;;37.00;33.00;;;;;;;19.61;65.15;95185.22;4993625;28;20227;-68
2022/05/26 02:32:38;;;;;;;38.35;33.10;;;;;;;19.32;66.28;95175.72;4992178;28;20204;-65
2022/05/26 02:35:12;;;;;;;37.00;33.10;;;;;;;19.51;65.59;95186.63;5002240;28;20286;-68
2022/05/26 02:37:39;;;;;;;37.70;33.65;;;;;;;19.50;65.16;95183.16;5000778;28;20231;-68
2022/05/26 02:40:07;;;;;;;36.92;33.03;;;;;;;19.38;65.50;95184.78;4996607;28;20223;-69
2022/05/26 02:42:33;;;;;;;35.83;32.03;;;;;;;19.41;65.63;95173.72;5012017;28;20220;-65
2022/05/26 02:45:00;;;;;;;36.92;33.05;;;;;;;19.44;65.85;95183.16;5001174;28;20344;-66
2022/05/26 02:47:41;;;;;;;42.75;33.88;;;;;;;19.46;65.83;95175.75;4987861;28;20284;-66
2022/05/26 02:50:24;;;;;;;37.30;33.20;;;;;;;19.48;65.42;95163.03;5012367;28;20206;-64
2022/05/26 02:52:55;;;;;;;39.53;32.42;;;;;;;19.49;65.52;95168.19;4993490;28;20285;-67
2022/05/26 02:55:30;;;;;;;39.40;33.60;;;;;;;19.53;65.11;95165.94;4996753;28;20702;-68
2022/05/26 02:58:29;;;;;;;37.38;33.50;;;;;;;19.55;64.92;95183.38;4995292;28;20235;-67
2022/05/26 03:01:19;;;;;;;39.50;32.95;;;;;;;19.38;65.62;95180.28;4997627;28;20238;-65
2022/05/26 03:03:49;;;;;;;37.55;33.28;;;;;;;19.28;66.16;95192.34;5000804;28;20310;-68
2022/05/26 03:06:27;;;;;;;42.63;34.70;;;;;;;19.27;66.38;95194.19;5002073;28;20223;-65
2022/05/26 03:08:54;;;;;;;36.08;32.28;;;;;;;19.27;66.09;95180.88;5001899;28;20257;-67
2022/05/26 03:11:23;;;;;;;35.70;31.90;;;;;;;19.43;65.66;95198.31;4994659;28;20203;-68
2022/05/26 03:13:50;;;;;;;39.10;32.95;;;;;;;19.23;66.23;95198.28;5000745;28;20191;-66
2022/05/26 03:16:16;;;;;;;39.60;32.45;;;;;;;19.24;66.32;95202.56;4995607;28;20227;-68
2022/05/26 03:18:41;;;;;;;37.80;33.15;;;;;;;19.26;66.05;95213.88;5003840;28;20225;-66
2022/05/26 03:21:08;;;;;;;36.92;33.03;;;;;;;19.28;66.31;95206.50;5005775;28;20231;-66
2022/05/26 03:23:34;;;;;;;36.13;32.08;;;;;;;19.34;66.11;95210.19;4999407;28;20207;-66
2022/05/26 03:26:00;;;;;;;41.15;34.58;;;;;;;18.73;68.02;95218.94;5004146;28;20642;-65
2022/05/26 03:28:27;;;;;;;37.22;32.40;;;;;;;18.84;68.18;95206.94;5013570;28;20234;-67
2022/05/26 03:30:53;;;;;;;39.10;34.83;;;;;;;19.20;66.80;95209.34;5004630;28;20364;-64
2022/05/26 03:33:19;;;;;;;38.78;34.58;;;;;;;19.16;66.74;95219.59;5001987;28;20314;-68
2022/05/26 03:41:15;;;;;;;38.60;32.30;;;;;;;19.34;66.05;95208.34;4998027;28;20278;-67
2022/05/26 03:43:49;;;;;;;37.38;33.33;;;;;;;19.36;66.38;95208.97;4997131;28;20296;-67
2022/05/26 03:46:15;;;;;;;39.33;34.28;;;;;;;19.38;65.96;95208.78;4986394;28;20225;-68
2022/05/26 03:48:41;;;;;;;37.42;33.20;;;;;;;19.49;65.72;95223.38;4998013;28;20207;-66
2022/05/26 03:51:07;;;;;;;37.75;33.75;;;;;;;19.39;65.93;95237.09;5002087;28;20227;-67
2022/05/26 03:53:34;;;;;;;37.47;33.25;;;;;;;19.35;66.28;95234.00;5000382;28;20211;-67
2022/05/26 03:56:00;;;;;;;44.50;34.47;;;;;;;19.35;66.29;95228.69;5003614;28;20207;-64
2022/05/26 03:58:26;;;;;;;38.13;34.22;;;;;;;19.30;66.45;95236.44;5004842;28;20234;-68
2022/05/26 04:00:51;;;;;;;38.60;34.15;;;;;;;19.36;66.16;95235.63;5001289;28;20239;-68
2022/05/26 04:03:17;;;;;;;40.80;33.22;;;;;;;19.48;65.67;95246.53;4997714;28;20227;-67
2022/05/26 04:05:42;;;;;;;36.25;32.28;;;;;;;19.54;65.42;95244.91;4995910;28;20247;-68
2022/05/26 04:08:08;;;;;;;37.08;32.17;;;;;;;19.55;64.74;95246.56;5005024;28;20214;-66
2022/05/26 04:10:34;;;;;;;35.75;32.05;;;;;;;19.39;64.46;95247.75;4995774;28;20232;-67
2022/05/26 04:12:59;;;;;;;35.63;31.90;;;;;;;19.20;65.63;95251.19;5003200;28;20215;-65
2022/05/26 04:15:25;;;;;;;34.70;30.92;;;;;;;19.30;64.69;95231.13;4997945;28;20531;-63
2022/05/26 04:17:51;;;;;;;37.10;32.03;;;;;;;19.30;65.22;95254.28;5003038;28;20234;-65
2022/05/26 04:20:19;;;;;;;35.05;31.33;;;;;;;19.35;65.41;95251.81;5001904;28;20209;-66
2022/05/26 04:22:45;;;;;;;35.97;32.15;;;;;;;19.35;65.36;95258.00;4999689;28;20235;-63
2022/05/26 04:25:11;;;;;;;35.05;31.20;;;;;;;19.45;65.24;95252.28;4996310;28;20223;-63
2022/05/26 04:27:37;;;;;;;40.70;34.55;;;;;;;19.33;65.51;95259.22;4994876;28;20310;-64
2022/05/26 04:30:06;;;;;;;40.67;33.22;;;;;;;19.23;66.48;95256.09;5002525;28;20301;-63
2022/05/26 04:32:31;;;;;;;41.42;34.40;;;;;;;19.41;66.13;95269.72;4999444;28;20477;-66
2022/05/26 04:34:57;;;;;;;36.67;32.63;;;;;;;19.45;66.40;95264.78;5000286;28;20273;-64
2022/05/26 04:37:25;;;;;;;39.30;33.38;;;;;;;19.11;67.41;95264.69;4998595;28;20229;-64
2022/05/26 04:39:53;;;;;;;39.97;35.72;;;;;;;19.04;67.76;95277.16;5000398;28;20270;-65
2022/05/26 04:42:19;;;;;;;37.13;32.83;;;;;;;19.29;66.65;95264.13;5002501;28;20223;-64
2022/05/26 04:44:49;;;;;;;37.65;33.58;;;;;;;19.44;66.26;95263.97;5001610;28;20225;-63
2022/05/26 04:47:17;;;;;;;39.22;33.88;;;;;;;19.59;65.35;95272.63;5010429;28;20207;-64
2022/05/26 04:49:43;;;;;;;39.58;35.35;;;;;;;19.64;65.64;95266.69;5001219;28;20579;-64
2022/05/26 04:52:11;;;;;;;38.80;34.25;;;;;;;19.81;65.21;95262.66;5001459;28;20310;-65
2022/05/26 04:54:37;;;;;;;38.13;34.15;;;;;;;19.82;65.12;95266.13;5001038;28;20288;-68
2022/05/26 04:57:05;;;;;;;39.92;34.47;;;;;;;19.93;64.61;95262.03;4993361;28;20231;-68
2022/05/26 04:59:31;;;;;;;38.53;34.55;;;;;;;19.73;65.56;95257.50;4978819;28;20239;-65
2022/05/26 05:01:57;;;;;;;41.38;35.90;;;;;;;20.01;64.62;95275.19;5002158;28;20709;-66
2022/05/26 05:04:24;;;;;;;40.95;35.50;;;;;;;20.18;64.00;95265.78;4994587;28;20262;-68
2022/05/26 05:06:51;;;;;;;40.55;36.10;;;;;;;20.23;63.79;95268.66;4997282;28;20222;-65
2022/05/26 05:09:16;;;;;;;39.65;34.95;;;;;;;20.21;63.57;95270.69;5000099;28;20300;-63
2022/05/26 05:11:42;;;;;;;39.72;34.15;;;;;;;20.28;63.23;95271.50;4994418;28;20243;-67
2022/05/26 05:14:07;;;;;;;39.28;33.47;;;;;;;20.36;62.82;95273.13;4992435;28;20204;-64
2022/05/26 05:16:42;;;;;;;38.70;32.85;;;;;;;20.63;61.98;95284.66;4990901;28;20219;-64
2022/05/26 05:19:08;;;;;;;36.40;31.58;;;;;;;20.79;60.73;95277.22;4999752;28;20577;-67
2022/05/26 05:21:52;;;;;;;37.60;32.40;;;;;;;20.74;60.65;95283.19;4999313;28;20262;-64
2022/05/26 05:24:26;;;;;;;38.38;31.73;;;;;;;20.68;61.12;95289.38;4994472;28;20223;-64
2022/05/26 05:26:58;;;;;;;37.75;33.40;;;;;;;20.52;62.00;95282.59;4997168;28;20234;-63
2022/05/26 05:29:29;;;;;;;41.40;33.53;;;;;;;20.57;61.84;95282.81;4995014;28;20199;-65
2022/05/26 05:32:07;;;;;;;38.17;32.63;;;;;;;20.66;61.58;95292.28;4999912;28;20230;-65
2022/05/26 05:34:40;;;;;;;38.97;34.08;;;;;;;20.57;62.31;95288.16;4994511;28;20346;-65
2022/05/26 05:37:12;;;;;;;40.88;35.00;;;;;;;20.62;62.02;95291.03;4996980;28;20237;-66
2022/05/26 05:39:38;;;;;;;38.83;34.72;;;;;;;20.85;61.68;95297.78;4994182;28;20218;-65
2022/05/26 05:42:05;;;;;;;45.28;35.53;;;;;;;20.83;61.63;95295.31;4995866;28;20230;-65
2022/05/26 05:44:31;;;;;;;42.58;35.38;;;;;;;20.96;61.08;95299.81;4999294;28;20214;-66
2022/05/26 05:46:59;;;;;;;37.38;33.08;;;;;;;20.95;61.46;95303.50;5001775;28;20212;-66
2022/05/26 05:49:28;;;;;;;38.08;33.95;;;;;;;20.92;61.14;95319.97;4993169;28;21019;-67
2022/05/26 05:51:54;;;;;;;42.17;36.20;;;;;;;20.68;61.67;95308.91;5000479;28;20586;-67
2022/05/26 05:54:21;;;;;;;42.10;35.90;;;;;;;20.65;62.50;95313.84;4991204;28;20628;-67
2022/05/26 05:56:47;;;;;;;43.80;34.25;;;;;;;20.93;61.90;95332.31;5005649;28;20478;-64
2022/05/26 05:59:13;;;;;;;40.35;35.13;;;;;;;20.92;61.32;95319.97;5000666;28;20337;-67
2022/05/26 06:01:39;;;;;;;39.33;35.10;;;;;;;21.09;61.20;95323.84;4992882;28;20321;-64
2022/05/26 06:04:05;;;;;;;42.85;35.03;;;;;;;21.17;61.15;95321.97;4994342;28;20235;-63
2022/05/26 06:06:39;;;;;;;39.88;34.50;;;;;;;21.21;61.00;95323.19;4993726;28;20238;-63
2022/05/26 06:09:05;;;;;;;43.45;34.90;;;;;;;21.36;60.67;95326.44;4995198;28;20223;-65
2022/05/26 06:11:31;;;;;;;41.78;33.97;;;;;;;21.49;60.18;95337.13;4995855;28;20211;-66
2022/05/26 06:13:57;;;;;;;40.85;32.60;;;;;;;21.53;59.07;95330.31;4999388;28;20218;-63
2022/05/26 06:16:23;;;;;;;35.30;30.73;;;;;;;21.67;58.82;95332.94;4994401;28;20226;-64
2022/05/26 06:18:50;;;;;;;42.83;30.77;;;;;;;21.73;58.87;95324.88;4994375;28;20226;-66
2022/05/26 06:21:16;;;;;;;36.65;30.50;;;;;;;21.75;58.42;95327.34;4994273;28;20234;-63
2022/05/26 06:23:42;;;;;;;35.13;29.25;;;;;;;21.85;58.60;95333.03;4997456;28;20242;-65
2022/05/26 06:26:07;;;;;;;32.33;28.48;;;;;;;21.51;57.48;95334.22;4998200;28;20278;-65
2022/05/26 06:31:20;;;;;;;34.42;28.95;;;;;;;21.50;56.99;95336.09;4990825;28;20237;-64
2022/05/26 06:39:14;;;;;;;35.58;27.40;;;;;;;21.97;56.11;95355.44;4995657;28;20408;-63
2022/05/26 06:44:23;;;;;;;35.60;26.00;;;;;;;21.96;56.14;95358.31;4996162;28;20209;-66
2022/05/26 06:46:49;;;;;;;37.13;26.60;;;;;;;21.92;56.11;95355.25;4992404;28;20199;-64
2022/05/26 06:49:14;;;;;;;33.67;25.48;;;;;;;22.09;56.00;95352.06;4997066;28;20219;-64
2022/05/26 06:51:43;;;;;;;40.50;28.15;;;;;;;22.21;55.51;95359.25;5005960;28;20222;-63
2022/05/26 06:54:09;;;;;;;36.22;29.70;;;;;;;22.15;55.77;95356.56;4997671;28;20221;-67
2022/05/26 06:56:35;;;;;;;33.95;27.75;;;;;;;22.34;54.45;95352.94;4994896;28;20228;-66
2022/05/26 06:59:00;;;;;;;35.00;27.25;;;;;;;22.37;54.22;95352.53;5001322;28;20222;-64
2022/05/26 07:01:26;;;;;;;34.20;26.33;;;;;;;22.12;55.58;95355.13;5002551;28;20233;-66
2022/05/26 07:03:51;;;;;;;32.67;26.45;;;;;;;22.17;55.82;95362.53;5001961;28;20226;-63
2022/05/26 07:06:20;;;;;;;32.35;24.55;;;;;;;22.31;55.03;95363.28;5000425;28;20268;-65
2022/05/26 07:08:46;;;;;;;30.30;21.75;;;;;;;22.46;53.42;95358.44;5000456;28;20219;-63
2022/05/26 07:11:13;;;;;;;29.83;20.52;;;;;;;22.57;52.58;95355.06;4993932;28;20257;-63
2022/05/26 07:13:38;;;;;;;27.17;21.45;;;;;;;22.73;51.51;95359.06;4994932;28;20222;-65
2022/05/26 07:16:05;;;;;;;29.00;21.17;;;;;;;22.75;51.82;95356.16;4996474;28;20230;-63
2022/05/26 07:18:30;;;;;;;28.08;17.70;;;;;;;22.85;50.32;95356.47;4995495;28;20233;-63
2022/05/26 07:20:56;;;;;;;21.77;16.15;;;;;;;22.85;49.37;95357.31;4997748;28;20227;-63
2022/05/26 07:23:21;;;;;;;19.90;14.73;;;;;;;22.94;48.10;95355.16;4994766;28;20207;-65
2022/05/26 07:25:47;;;;;;;21.15;13.68;;;;;;;22.92;47.09;95356.44;4998554;28;20258;-68
2022/05/26 07:28:12;;;;;;;20.00;13.57;;;;;;;23.10;46.82;95359.19;5000192;28;20230;-64
2022/05/26 07:30:41;;;;;;;19.15;12.75;;;;;;;23.21;47.18;95358.44;4998201;28;20269;-65
2022/05/26 07:33:07;;;;;;;18.83;11.57;;;;;;;23.29;46.26;95357.34;4997490;28;20214;-64
2022/05/26 07:35:33;;;;;;;22.60;8.68;;;;;;;23.27;44.57;95367.47;4997678;28;20330;-64
2022/05/26 07:43:31;;;;;;;14.25;6.97;;;;;;;23.59;41.60;95357.41;4998403;28;20226;-65
2022/05/26 07:45:57;;;;;;;18.05;6.32;;;;;;;23.66;40.22;95362.69;4995124;28;20215;-63
2022/05/26 07:48:22;;;;;;;11.35;5.68;;;;;;;23.75;40.64;95367.56;4994649;28;20230;-65
2022/05/26 07:50:48;;;;;;;10.93;5.60;;;;;;;23.85;39.99;95366.22;4995227;28;20221;-64
2022/05/26 07:53:13;;;;;;;10.02;5.90;;;;;;;23.99;39.71;95356.94;4994629;28;20254;-62
2022/05/26 07:55:42;;;;;;;10.15;5.75;;;;;;;24.08;40.02;95360.09;4997228;28;20234;-63
2022/05/26 07:58:10;;;;;;;8.75;5.55;;;;;;;24.13;39.62;95355.69;4996051;28;20291;-65
2022/05/26 08:00:36;;;;;;;9.35;5.57;;;;;;;24.25;38.64;95365.69;5001539;28;20231;-66
2022/05/26 08:03:01;;;;;;;13.38;6.30;;;;;;;24.26;39.08;95367.31;5001319;28;20266;-66
2022/05/26 08:05:27;;;;;;;11.25;6.00;;;;;;;24.28;39.32;95371.41;4995607;28;20235;-64
2022/05/26 08:07:53;;;;;;;7.75;5.35;;;;;;;24.31;39.23;95378.19;5001382;28;20246;-64
2022/05/26 08:10:19;;;;;;;8.55;5.15;;;;;;;24.37;38.47;95366.53;4998432;28;20222;-63
2022/05/26 08:12:44;;;;;;;7.57;4.22;;;;;;;24.49;38.25;95370.09;4999851;28;20323;-64
2022/05/26 08:15:10;;;;;;;10.02;5.63;;;;;;;24.57;38.65;95375.16;4996424;28;20228;-63
2022/05/26 08:17:37;;;;;;;9.88;4.15;;;;;;;24.73;37.13;95379.03;5004725;28;20206;-65
2022/05/26 08:20:04;;;;;;;10.77;4.85;;;;;;;24.76;36.98;95375.88;5004768;28;20250;-63
2022/05/26 08:22:29;;;;;;;10.35;4.85;;;;;;;24.78;37.08;95376.47;4984134;28;20223;-67
2022/05/26 08:24:57;;;;;;;11.10;4.80;;;;;;;24.87;37.00;95376.94;5004422;28;20222;-67
2022/05/26 08:27:24;;;;;;;14.10;5.78;;;;;;;24.94;36.77;95369.59;5005147;28;20239;-63
2022/05/26 08:29:51;;;;;;;9.90;4.85;;;;;;;25.01;36.79;95372.97;5000103;28;20253;-65
2022/05/26 08:32:18;;;;;;;7.25;4.10;;;;;;;25.08;37.35;95381.75;4998184;28;20203;-69
2022/05/26 08:34:44;;;;;;;11.18;4.70;;;;;;;25.03;37.32;95376.25;5001184;28;20222;-63
2022/05/26 08:37:18;;;;;;;9.23;4.68;;;;;;;24.99;38.00;95377.78;5002029;28;20227;-62
2022/05/26 08:39:44;;;;;;;6.50;4.70;;;;;;;24.97;37.49;95379.06;5017325;28;20307;-62
2022/05/26 08:42:31;;;;;;;12.45;5.13;;;;;;;24.98;38.36;95373.44;4999949;28;20246;-65
2022/05/26 08:45:06;;;;;;;8.07;4.50;;;;;;;24.98;38.24;95370.75;4996903;28;20321;-63
2022/05/26 08:47:41;;;;;;;10.43;4.85;;;;;;;24.95;39.32;95381.97;5000120;28;20285;-65
2022/05/26 08:50:16;;;;;;;9.75;4.90;;;;;;;25.01;38.36;95378.34;4997014;28;20203;-63
2022/05/26 08:52:55;;;;;;;7.47;4.60;;;;;;;25.00;38.39;95381.28;4997775;28;20237;-63
2022/05/26 08:55:30;;;;;;;10.25;5.43;;;;;;;24.97;38.61;95379.88;5001301;28;20276;-67
2022/05/26 08:58:15;;;;;;;11.35;5.65;;;;;;;24.96;38.49;95380.09;5001139;28;20221;-67
2022/05/26 09:00:41;;;;;;;10.93;4.93;;;;;;;24.91;37.96;95382.66;5000134;28;20233;-65
2022/05/26 09:03:31;;;;;;;8.75;4.50;;;;;;;24.91;38.21;95388.03;5002635;28;20245;-67
2022/05/26 09:06:09;;;;;;;8.50;5.28;;;;;;;24.90;38.61;95389.91;4943327;28;20318;-67
2022/05/26 09:14:20;;;;;;;12.20;4.88;;;;;;;25.11;37.19;95388.53;4964432;28;20222;-67
2022/05/26 09:16:46;;;;;;;8.27;5.03;;;;;;;25.17;37.87;95376.06;4946103;28;20228;-61
2022/05/26 09:19:20;;;;;;;10.25;4.60;;;;;;;25.18;37.21;95383.06;4941646;28;20259;-65
2022/05/26 09:21:51;;;;;;;10.00;5.05;;;;;;;25.20;37.46;95384.47;4943332;28;20247;-66
2022/05/26 09:24:26;;;;;;;13.60;4.60;;;;;;;25.34;37.89;95387.75;4941465;28;20228;-64
2022/05/26 09:26:56;;;;;;;8.00;5.28;;;;;;;25.43;37.62;95372.06;4956365;28;20322;-64
2022/05/26 09:29:31;;;;;;;8.80;4.45;;;;;;;25.49;37.57;95382.69;4947576;28;20471;-64
2022/05/26 09:31:58;;;;;;;8.38;4.60;;;;;;;25.59;37.31;95370.53;4939643;28;20214;-66
2022/05/26 09:34:27;;;;;;;7.25;4.68;;;;;;;25.60;37.58;95374.84;4960903;28;20228;-65
2022/05/26 09:37:00;;;;;;;8.43;4.53;;;;;;;25.79;37.57;95373.63;4942152;28;20766;-65
2022/05/26 09:39:39;;;;;;;6.50;4.28;;;;;;;25.90;35.24;95388.13;4943788;28;20319;-66
2022/05/26 09:42:25;;;;;;;5.78;3.88;;;;;;;25.87;34.86;95370.56;4965220;28;20230;-63
2022/05/26 09:44:56;;;;;;;7.28;4.28;;;;;;;26.01;33.88;95373.00;4997863;28;20260;-67
2022/05/26 09:47:48;;;;;;;7.63;4.18;;;;;;;26.14;34.02;95370.00;5000610;28;20218;-66
2022/05/26 09:50:32;;;;;;;5.97;4.22;;;;;;;26.31;33.35;95378.97;4997179;28;20211;-65
2022/05/26 09:52:59;;;;;;;9.93;4.07;;;;;;;26.23;33.62;95367.78;4978525;28;20223;-65
2022/05/26 09:55:31;;;;;;;6.18;3.72;;;;;;;26.30;33.49;95371.13;4994837;28;20354;-67
2022/05/26 09:58:04;;;;;;;8.35;4.20;;;;;;;26.44;33.49;95366.25;4996409;28;20235;-64
2022/05/26 10:00:43;;;;;;;9.13;3.60;;;;;;;26.49;33.29;95369.88;4991520;28;20300;-65
2022/05/26 10:03:26;;;;;;;10.48;3.55;;;;;;;26.50;32.23;95366.09;4993103;28;20219;-65
2022/05/26 10:06:15;;;;;;;6.95;3.70;;;;;;;26.56;32.42;95361.63;5011798;28;20234;-64
2022/05/26 10:09:01;;;;;;;7.20;3.72;;;;;;;26.69;33.33;95360.50;5021774;28;20277;-62
2022/05/26 10:11:42;;;;;;;7.85;4.18;;;;;;;26.78;34.17;95357.19;4997930;28;20195;-62
2022/05/26 10:14:20;;;;;;;6.95;4.00;;;;;;;26.84;32.25;95360.78;5013225;28;20213;-69
2022/05/26 10:16:48;;;;;;;7.78;3.53;;;;;;;26.84;31.55;95353.50;4988735;28;20219;-65
2022/05/26 10:19:26;;;;;;;9.15;3.90;;;;;;;26.92;30.87;95351.44;4996415;28;20271;-68
2022/05/26 10:22:27;;;;;;;8.55;3.35;;;;;;;27.06;31.11;95352.75;4997437;28;20222;-64
2022/05/26 10:25:28;;;;;;;6.85;3.55;;;;;;;27.31;31.02;95343.41;4996446;28;20238;-67
2022/05/26 10:28:13;;;;;;;9.27;4.60;;;;;;;27.44;30.72;95345.75;4944351;28;20243;-68
2022/05/26 10:30:44;;;;;;;7.15;3.30;;;;;;;27.56;29.31;95351.03;4958864;28;20232;-68
2022/05/26 10:33:19;;;;;;;6.90;3.47;;;;;;;27.46;27.60;95349.03;4961668;28;20232;-65
2022/05/26 10:36:02;;;;;;;7.97;3.55;;;;;;;27.67;28.06;95348.22;4961651;28;20603;-66
2022/05/26 10:39:07;;;;;;;7.88;3.50;;;;;;;27.84;26.27;95352.75;4963487;28;20239;-67
2022/05/26 10:42:07;;;;;;;10.00;3.80;;;;;;;28.09;27.83;95344.97;4943943;28;20224;-68
2022/05/26 10:45:00;;;;;;;6.10;3.10;;;;;;;28.18;25.17;95358.84;4890195;29;20243;-63
2022/05/26 10:47:35;;;;;;;7.38;3.08;;;;;;;28.29;24.85;95348.94;4903438;29;20229;-60
2022/05/26 10:50:06;;;;;;;7.55;3.38;;;;;;;28.66;24.98;95350.94;4887571;29;20217;-64
2022/05/26 10:52:39;;;;;;;9.00;4.50;;;;;;;28.81;26.39;95348.34;4901184;29;20236;-63
2022/05/26 10:55:14;;;;;;;9.15;4.53;;;;;;;28.89;24.63;95342.47;4886557;29;20230;-67
2022/05/26 10:57:53;;;;;;;7.88;4.18;;;;;;;28.82;26.62;95341.06;4903535;29;20244;-69
2022/05/26 11:00:23;;;;;;;6.47;3.53;;;;;;;28.77;26.40;95336.44;4901944;29;20234;-69
2022/05/26 11:03:07;;;;;;;10.82;3.50;;;;;;;28.77;24.77;95339.94;4903842;29;20287;-69
2022/05/26 11:05:41;;;;;;;7.72;3.33;;;;;;;28.74;25.99;95340.47;4890817;29;20310;-67
2022/05/26 11:08:27;;;;;;;6.25;3.42;;;;;;;28.99;26.23;95339.81;4874588;29;20238;-64
2022/05/26 11:11:27;;;;;;;7.68;4.10;;;;;;;29.43;26.81;95338.78;4894648;29;20241;-68
2022/05/26 11:17:21;;;;;;;8.48;3.60;;;;;;;29.61;26.38;95340.22;4921519;29;20225;-62
2022/05/26 11:17:24;;;;;;;8.70;4.07;;;;;;;29.54;27.69;95326.94;4917770;29;20348;-64
2022/05/26 11:20:07;;;;;;;8.20;3.85;;;;;;;29.39;27.99;95333.06;4911387;29;20279;-68
2022/05/26 11:22:33;;;;;;;8.75;4.20;;;;;;;29.33;29.18;95336.03;4919336;29;20233;-61
2022/05/26 11:24:59;;;;;;;8.15;3.67;;;;;;;29.28;29.28;95330.59;4945217;28;20228;-66
2022/05/26 11:27:50;;;;;;;8.90;4.10;;;;;;;29.39;29.18;95333.06;4970414;28;20247;-63
2022/05/26 11:36:11;;;;;;;12.48;4.40;;;;;;;29.45;27.94;95323.88;4973738;28;20656;-67
2022/05/26 11:38:44;;;;;;;12.90;4.20;;;;;;;29.43;26.73;95323.34;4970176;28;20346;-63
2022/05/26 11:41:47;;;;;;;7.47;3.95;;;;;;;29.72;26.44;95309.41;4962689;28;20729;-66
2022/05/26 11:45:04;;;;;;;9.45;3.75;;;;;;;29.94;26.68;95319.25;4905399;29;20229;-60
2022/05/26 11:48:00;;;;;;;9.68;4.22;;;;;;;29.84;26.54;95303.78;4890129;29;20299;-64
2022/05/26 11:50:55;;;;;;;7.85;3.42;;;;;;;30.03;26.29;95314.94;4903096;29;20219;-64
2022/05/26 11:53:30;;;;;;;6.00;4.03;;;;;;;30.18;26.69;95320.41;4876492;29;20210;-64
2022/05/26 11:56:04;;;;;;;7.88;4.32;;;;;;;30.38;26.00;95308.81;4877072;29;20313;-64
2022/05/26 11:58:32;;;;;;;8.10;3.70;;;;;;;30.62;25.83;95316.44;4872608;29;20235;-61
2022/05/26 12:01:19;;;;;;;6.78;4.00;;;;;;;30.91;25.47;95314.00;4874152;29;20236;-66
2022/05/26 12:03:54;;;;;;;8.02;3.95;;;;;;;31.28;24.24;95315.59;4887458;29;20219;-68
2022/05/26 12:06:41;;;;;;;8.43;4.07;;;;;;;31.49;23.44;95311.75;4863034;29;20234;-61
2022/05/26 12:09:31;;;;;;;6.13;3.67;;;;;;;31.51;23.87;95319.63;4862327;29;20236;-66
2022/05/26 12:12:08;;;;;;;7.82;3.58;;;;;;;31.23;24.20;95324.56;4867644;29;20251;-64
2022/05/26 12:14:54;;;;;;;11.50;3.63;;;;;;;31.39;24.45;95330.81;4851952;29;20224;-67
2022/05/26 12:17:51;;;;;;;8.20;4.00;;;;;;;31.47;24.12;95327.53;4859375;28;20211;-62
2022/05/26 12:20:16;;;;;;;5.82;3.90;;;;;;;31.47;24.27;95338.38;4893149;29;20227;-67
2022/05/26 12:22:51;;;;;;;7.63;3.80;;;;;;;31.59;24.47;95338.88;4943481;28;20236;-64